Metar Aviation Weather Data LEMG

15°C Temp
11°C Dewpoint
% Humidity
Temperature
2 KM/H
1 MPH
1 KTS
Calm
Due North

Wind Speed
Light Rain
Showers
Pressure 1012.92 (hPa) - 29.91 (in)
Visibility 6.2 (mi) - 10 (km)

Current Conditions
LEMG
Metar :LEMG 181530Z VRB01KT 9999 SHRA FEW025 FEW030CB BKN045 15/11 Q1013 TEMPO 4000 TSRA
Thu 18th April 17:30 pm

  Metar Aviation API Data Provided by https://www.checkwx.com/ PHP scripts by weather34.com ©2019